createdAt,value
2023-04-25T00:05:16.640Z,3.90
2023-04-25T00:08:18.733Z,4.40
2023-04-25T00:11:20.664Z,3.60
2023-04-25T00:14:23.526Z,3.80
2023-04-25T00:17:25.431Z,3.70
2023-04-25T00:20:27.314Z,3.40
2023-04-25T00:23:29.401Z,3.50
2023-04-25T00:26:31.321Z,3.60
2023-04-25T00:29:34.082Z,3.40
2023-04-25T00:32:36.366Z,3.70
2023-04-25T00:35:38.889Z,4.30
2023-04-25T00:38:40.852Z,3.60
2023-04-25T00:41:44.272Z,3.20
2023-04-25T00:44:47.086Z,4.00
2023-04-25T00:47:49.096Z,4.20
2023-04-25T00:50:57.221Z,3.60
2023-04-25T00:53:59.904Z,4.10
2023-04-25T00:57:03.441Z,4.50
2023-04-25T01:00:07.222Z,4.40
2023-04-25T01:03:11.509Z,4.70
2023-04-25T01:06:13.954Z,4.10
2023-04-25T01:09:16.498Z,3.80
2023-04-25T01:12:19.122Z,4.70
2023-04-25T01:15:22.535Z,4.40
2023-04-25T01:18:25.058Z,4.20
2023-04-25T01:21:28.576Z,4.40
2023-04-25T01:24:33.151Z,5.00
2023-04-25T01:27:37.317Z,4.50
2023-04-25T01:30:39.772Z,4.60
2023-04-25T01:33:42.139Z,4.20
2023-04-25T01:36:44.059Z,4.40
2023-04-25T01:39:46.246Z,4.10
2023-04-25T01:42:48.968Z,4.40
2023-04-25T01:45:51.891Z,4.80
2023-04-25T01:48:54.062Z,4.30
2023-04-25T01:55:33.028Z,5.30
2023-04-25T01:58:40.794Z,5.10
2023-04-25T02:05:15.978Z,4.50
2023-04-25T02:08:19.320Z,4.60
2023-04-25T02:11:21.307Z,4.10
2023-04-25T02:14:43.888Z,4.70
2023-04-25T02:17:56.442Z,4.40
2023-04-25T02:21:00.131Z,5.10
2023-04-25T02:24:02.588Z,4.20
2023-04-25T02:27:04.761Z,4.70
2023-04-25T02:30:07.619Z,4.90
2023-04-25T02:33:10.960Z,5.20
2023-04-25T02:36:13.215Z,4.30
2023-04-25T02:39:17.555Z,4.90
2023-04-25T02:42:19.919Z,5.30
2023-04-25T02:45:21.998Z,5.30
2023-04-25T02:48:24.118Z,4.80
2023-04-25T02:51:27.439Z,4.80
2023-04-25T02:54:31.017Z,5.90
2023-04-25T02:57:33.234Z,5.30
2023-04-25T03:00:35.215Z,5.40
2023-04-25T03:03:37.553Z,5.00
2023-04-25T03:06:40.667Z,5.00
2023-04-25T03:09:42.679Z,5.40
2023-04-25T03:12:45.015Z,5.50
2023-04-25T03:15:46.970Z,5.40
2023-04-25T03:18:50.867Z,5.80
2023-04-25T03:21:55.164Z,5.60
2023-04-25T03:24:57.193Z,5.70
2023-04-25T03:27:59.917Z,6.20
2023-04-25T03:31:03.227Z,6.10
2023-04-25T03:34:05.903Z,5.90
2023-04-25T03:37:08.195Z,6.70
2023-04-25T03:40:12.933Z,6.90
2023-04-25T03:43:35.879Z,5.80
2023-04-25T03:46:41.326Z,5.70
2023-04-25T03:49:43.777Z,6.90
2023-04-25T03:52:45.891Z,5.30
2023-04-25T03:55:48.256Z,5.90
2023-04-25T03:58:50.709Z,6.70
2023-04-25T04:05:15.315Z,5.70
2023-04-25T04:08:26.430Z,6.00
2023-04-25T04:11:31.254Z,5.90
2023-04-25T04:14:34.322Z,5.60
2023-04-25T04:17:37.968Z,5.70
2023-04-25T04:20:40.230Z,6.00
2023-04-25T04:23:42.569Z,6.10
2023-04-25T04:26:47.431Z,5.80
2023-04-25T04:30:08.881Z,6.20
2023-04-25T04:33:21.901Z,7.40
2023-04-25T04:36:31.383Z,6.60
2023-04-25T04:39:34.924Z,6.70
2023-04-25T04:42:46.994Z,5.80
2023-04-25T04:46:02.117Z,5.70
2023-04-25T04:49:41.160Z,6.30
2023-04-25T04:53:05.203Z,5.50
2023-04-25T04:56:31.534Z,6.10
2023-04-25T04:59:51.058Z,5.60
2023-04-25T05:03:15.163Z,5.50
2023-04-25T05:06:36.621Z,5.10
2023-04-25T05:10:13.935Z,5.40
2023-04-25T05:13:45.839Z,4.90
2023-04-25T05:17:16.402Z,5.60
2023-04-25T05:20:40.770Z,6.30
2023-04-25T05:24:03.847Z,6.80
2023-04-25T05:27:35.053Z,6.30
2023-04-25T05:30:51.935Z,5.90
2023-04-25T05:33:59.006Z,6.10
2023-04-25T05:37:09.454Z,4.80
2023-04-25T05:40:23.183Z,4.70
2023-04-25T05:43:52.660Z,5.60
2023-04-25T05:47:01.633Z,5.30
2023-04-25T05:50:26.556Z,5.60
2023-04-25T05:53:39.599Z,4.50
2023-04-25T05:56:42.914Z,4.60
2023-04-25T05:59:46.667Z,5.90
2023-04-25T06:05:16.905Z,5.50
2023-04-25T06:08:20.963Z,4.90
2023-04-25T06:11:24.312Z,5.30
2023-04-25T06:14:29.721Z,4.70
2023-04-25T06:17:32.164Z,5.80
2023-04-25T06:20:35.099Z,4.70
2023-04-25T06:23:37.042Z,5.00
2023-04-25T06:26:42.902Z,5.20
2023-04-25T06:29:45.324Z,4.00
2023-04-25T06:32:51.637Z,4.40
2023-04-25T06:35:54.330Z,3.70
2023-04-25T06:39:05.017Z,4.30
2023-04-25T06:42:10.911Z,3.50
2023-04-25T06:45:21.267Z,3.50
2023-04-25T06:48:24.929Z,3.30
2023-04-25T06:51:30.244Z,3.70
2023-04-25T06:54:33.609Z,3.80
2023-04-25T06:57:40.544Z,3.60
2023-04-25T07:01:04.944Z,3.20
2023-04-25T07:04:08.132Z,3.00
2023-04-25T07:07:14.385Z,3.70
2023-04-25T07:10:28.286Z,3.40
2023-04-25T07:13:31.281Z,3.40
2023-04-25T07:16:34.226Z,3.40
2023-04-25T07:24:12.764Z,2.90
2023-04-25T07:42:48.371Z,2.80
2023-04-25T07:47:15.880Z,3.00
2023-04-25T07:55:40.125Z,2.30
2023-04-25T08:05:36.390Z,2.50
2023-04-25T08:10:01.066Z,2.70
2023-04-25T08:29:47.268Z,2.30
2023-04-25T08:50:20.707Z,2.20
2023-04-25T08:58:09.996Z,2.50
2023-04-25T09:02:27.533Z,2.30
2023-04-25T09:07:07.411Z,2.60
2023-04-25T09:15:54.370Z,2.40
2023-04-25T09:40:34.782Z,2.10
2023-04-25T09:50:03.902Z,2.00
2023-04-25T10:05:46.449Z,2.50
2023-04-25T10:08:55.701Z,2.10
2023-04-25T10:11:59.529Z,2.20
2023-04-25T10:15:06.184Z,2.30
2023-04-25T10:18:10.137Z,2.00
2023-04-25T10:21:20.575Z,2.10
2023-04-25T10:24:24.667Z,2.00
2023-04-25T10:27:30.613Z,2.10
2023-04-25T10:30:32.733Z,2.30
2023-04-25T10:33:42.630Z,2.20
2023-04-25T10:36:53.041Z,2.10
2023-04-25T10:39:55.133Z,2.30
2023-04-25T10:43:38.535Z,2.20
2023-04-25T10:46:41.000Z,2.40
2023-04-25T10:49:52.560Z,2.60
2023-04-25T10:52:57.461Z,2.00
2023-04-25T10:56:04.447Z,1.70
2023-04-25T10:59:47.014Z,1.90
2023-04-25T11:14:21.007Z,1.80
2023-04-25T11:24:02.339Z,2.00
2023-04-25T11:27:35.408Z,1.80
2023-04-25T11:31:25.989Z,2.30
2023-04-25T11:39:50.777Z,1.90
2023-04-25T11:48:51.154Z,1.70
2023-04-25T11:52:42.134Z,2.00
2023-04-25T11:56:17.299Z,1.70
2023-04-25T12:04:38.043Z,1.80
2023-04-25T12:08:52.888Z,1.80
2023-04-25T12:39:25.296Z,1.50
2023-04-25T13:19:10.793Z,1.80
2023-04-25T13:23:26.405Z,1.80
2023-04-25T13:26:52.403Z,1.90
2023-04-25T13:35:54.698Z,1.70
2023-04-25T13:50:30.374Z,2.30
2023-04-25T14:06:39.383Z,1.70
2023-04-25T14:10:04.799Z,2.30
2023-04-25T14:13:49.043Z,1.90
2023-04-25T14:17:14.094Z,1.90
2023-04-25T14:26:24.066Z,2.00
2023-04-25T14:35:29.522Z,2.00
2023-04-25T14:44:10.761Z,1.70
2023-04-25T14:48:26.216Z,2.10
2023-04-25T14:52:29.110Z,1.90
2023-04-25T15:06:37.669Z,1.90
2023-04-25T15:10:18.290Z,2.10
2023-04-25T15:24:41.245Z,1.60
2023-04-25T15:28:34.446Z,1.50
2023-04-25T15:42:50.863Z,1.80
2023-04-25T15:46:35.990Z,3.80
2023-04-25T15:50:06.784Z,2.30
2023-04-25T15:53:38.881Z,2.00
2023-04-25T15:57:23.591Z,2.40
2023-04-25T16:01:15.714Z,1.80
2023-04-25T16:11:10.697Z,1.70
2023-04-25T16:20:28.076Z,2.30
2023-04-25T16:24:20.126Z,2.00
2023-04-25T16:27:48.913Z,1.90
2023-04-25T16:36:46.509Z,2.70
2023-04-25T16:40:23.524Z,2.60
2023-04-25T16:43:47.762Z,2.40
2023-04-25T16:47:49.347Z,2.10
2023-04-25T16:51:23.695Z,1.90
2023-04-25T17:09:17.900Z,3.40
2023-04-25T17:55:56.587Z,2.50
2023-04-25T18:00:05.247Z,2.60
2023-04-25T18:11:07.684Z,2.40
2023-04-25T18:15:10.649Z,3.20
2023-04-25T18:19:18.963Z,3.90
2023-04-25T18:22:38.494Z,2.30
2023-04-25T18:25:59.263Z,3.40
2023-04-25T18:30:25.049Z,3.70
2023-04-25T18:33:50.340Z,4.20
2023-04-25T18:37:39.150Z,3.30
2023-04-25T18:45:45.833Z,4.00
2023-04-25T18:49:20.058Z,4.40
2023-04-25T18:53:05.598Z,4.20
2023-04-25T18:56:26.755Z,3.90
2023-04-25T19:00:04.701Z,4.10
2023-04-25T19:03:30.641Z,4.30
2023-04-25T19:07:24.674Z,3.70
2023-04-25T19:11:14.187Z,4.30
2023-04-25T19:14:50.168Z,3.90
2023-04-25T19:18:02.302Z,4.10
2023-04-25T19:21:21.177Z,3.20
2023-04-25T19:25:09.002Z,3.60
2023-04-25T19:28:29.003Z,3.60
2023-04-25T19:31:48.799Z,3.70
2023-04-25T19:35:32.810Z,3.20
2023-04-25T19:39:08.975Z,3.70
2023-04-25T19:42:25.047Z,3.10
2023-04-25T19:45:48.078Z,3.10
2023-04-25T19:49:09.640Z,3.80
2023-04-25T19:52:17.851Z,4.10
2023-04-25T19:59:27.228Z,3.40
2023-04-25T20:09:42.782Z,3.30
2023-04-25T20:13:51.048Z,4.50
2023-04-25T20:18:16.484Z,4.00
2023-04-25T20:27:29.542Z,3.10
2023-04-25T20:31:10.325Z,3.90
2023-04-25T20:34:55.409Z,4.20
2023-04-25T20:38:28.020Z,4.20
2023-04-25T20:48:02.257Z,3.80
2023-04-25T20:56:56.118Z,5.00
2023-04-25T21:09:43.401Z,4.60
2023-04-25T21:14:23.958Z,5.70
2023-04-25T21:22:51.016Z,5.10
2023-04-25T21:26:21.974Z,4.80
2023-04-25T21:29:51.081Z,5.60
2023-04-25T21:33:01.470Z,5.50
2023-04-25T21:36:52.569Z,5.10
2023-04-25T21:41:25.326Z,4.70
2023-04-25T21:45:43.404Z,4.40
2023-04-25T21:50:02.555Z,5.20
2023-04-25T21:57:23.190Z,4.50
2023-04-25T22:31:48.595Z,5.30
2023-04-25T22:41:37.270Z,4.50
2023-04-25T22:45:35.915Z,5.60
2023-04-25T22:49:02.139Z,4.40
2023-04-25T22:53:00.439Z,4.40
2023-04-25T22:56:52.293Z,5.10
2023-04-25T23:01:18.903Z,4.60
2023-04-25T23:21:02.519Z,5.30
2023-04-25T23:35:59.297Z,4.40
2023-04-25T23:39:56.666Z,4.80
